Time;durP1;ratioP1;P1;durP2;ratioP2;P2;SDS_P1;SDS_P2;PMS_P1;PMS_P2;Temp;Humidity;BMP_temperature;BMP_pressure;BME280_temperature;BME280_humidity;BME280_pressure;Samples;Min_cycle;Max_cycle;Signal;HPM_P1;HPM_P2
2021/06/15 00:00:17;;;;;;;12.23;5.10;;;14.90;99.90;;;;;;5093398;28;20289;-73
2021/06/15 00:02:45;;;;;;;8.20;5.27;;;15.00;99.90;;;;;;5093593;28;20178;-68
2021/06/15 00:05:13;;;;;;;10.93;5.50;;;15.10;99.90;;;;;;5094286;28;20605;-71
2021/06/15 00:07:41;;;;;;;10.77;4.63;;;15.20;99.90;;;;;;5093586;28;20176;-68
2021/06/15 00:10:19;;;;;;;7.30;5.03;;;15.30;99.90;;;;;;5094560;28;20231;-69
2021/06/15 00:12:47;;;;;;;8.40;4.70;;;15.40;99.90;;;;;;5093236;28;20577;-71
2021/06/15 00:15:15;;;;;;;7.50;4.47;;;15.40;99.90;;;;;;5094265;28;20190;-67
2021/06/15 00:17:43;;;;;;;8.20;4.97;;;15.40;99.90;;;;;;5094358;28;20183;-67
2021/06/15 00:20:13;;;;;;;9.23;4.80;;;15.40;99.90;;;;;;5094045;28;20207;-72
2021/06/15 00:22:42;;;;;;;8.50;4.07;;;15.30;99.90;;;;;;5093138;28;20179;-68
2021/06/15 00:25:10;;;;;;;7.13;4.20;;;15.40;99.90;;;;;;5094293;28;20172;-67
2021/06/15 00:27:38;;;;;;;6.03;3.50;;;15.40;99.90;;;;;;5093746;28;20215;-66
2021/06/15 00:30:07;;;;;;;7.53;4.77;;;15.40;99.90;;;;;;5094103;28;20269;-67
2021/06/15 00:32:34;;;;;;;8.80;4.03;;;15.40;99.90;;;;;;5093751;28;20236;-70
2021/06/15 00:35:02;;;;;;;8.63;3.90;;;15.50;99.90;;;;;;5093899;28;20532;-67
2021/06/15 00:37:29;;;;;;;7.20;3.57;;;15.50;99.90;;;;;;5093638;28;20179;-68
2021/06/15 00:39:56;;;;;;;6.73;3.83;;;15.50;99.90;;;;;;5093995;28;20662;-66
2021/06/15 00:42:24;;;;;;;9.17;3.73;;;15.40;99.90;;;;;;5092969;28;20185;-68
2021/06/15 00:44:52;;;;;;;11.03;4.23;;;15.40;99.90;;;;;;5093875;28;20324;-66
2021/06/15 00:47:19;;;;;;;10.07;3.87;;;15.20;99.90;;;;;;5093622;28;20265;-71
2021/06/15 00:49:47;;;;;;;7.07;3.70;;;15.20;99.90;;;;;;5093802;28;20649;-67
2021/06/15 00:52:14;;;;;;;11.43;4.17;;;15.30;99.90;;;;;;5093355;28;20532;-73
2021/06/15 00:54:45;;;;;;;7.57;4.33;;;15.30;99.90;;;;;;5093511;28;20211;-67
2021/06/15 00:57:21;;;;;;;7.37;4.00;;;15.30;99.90;;;;;;5093684;28;20265;-70
2021/06/15 00:59:49;;;;;;;7.07;4.00;;;15.30;99.90;;;;;;5093416;28;20218;-70
2021/06/15 01:02:16;;;;;;;7.03;4.13;;;15.30;99.90;;;;;;5092797;28;20536;-72
2021/06/15 01:04:44;;;;;;;8.63;4.67;;;15.40;99.90;;;;;;5093366;28;20233;-68
2021/06/15 01:07:35;;;;;;;5.50;3.90;;;15.40;99.90;;;;;;5093273;28;20179;-72
2021/06/15 01:10:23;;;;;;;8.73;4.27;;;15.40;99.90;;;;;;5092684;28;20188;-69
2021/06/15 01:13:09;;;;;;;13.40;4.20;;;15.50;99.90;;;;;;5091872;28;20512;-74
2021/06/15 01:15:45;;;;;;;8.77;4.30;;;15.60;99.90;;;;;;5093139;28;20184;-73
2021/06/15 01:18:21;;;;;;;11.63;4.17;;;15.70;99.90;;;;;;5092965;28;20182;-74
2021/06/15 01:20:53;;;;;;;8.40;4.43;;;15.70;99.90;;;;;;5073005;28;20208;-73
2021/06/15 01:23:23;;;;;;;9.10;4.30;;;15.70;99.90;;;;;;5089847;28;20193;-67
2021/06/15 01:26:09;;;;;;;9.67;4.10;;;15.80;99.90;;;;;;5092894;28;20180;-72
2021/06/15 01:28:55;;;;;;;9.50;4.90;;;16.00;99.90;;;;;;5092416;28;20677;-71
2021/06/15 01:31:34;;;;;;;6.10;3.50;;;16.20;99.90;;;;;;5092149;28;20177;-70
2021/06/15 01:34:07;;;;;;;9.97;4.47;;;16.20;99.90;;;;;;5093112;28;20773;-68
2021/06/15 01:36:57;;;;;;;10.80;4.63;;;16.20;99.90;;;;;;5089208;28;20177;-72
2021/06/15 01:39:29;;;;;;;8.47;4.53;;;16.10;99.90;;;;;;5091961;28;20206;-71
2021/06/15 01:42:28;;;;;;;9.70;4.60;;;16.00;99.90;;;;;;5089179;28;20668;-67
2021/06/15 01:45:23;;;;;;;9.93;4.73;;;16.00;99.90;;;;;;5076911;28;20190;-67
2021/06/15 01:48:06;;;;;;;9.93;4.73;;;16.00;99.90;;;;;;5083808;28;20687;-69
2021/06/15 01:50:39;;;;;;;7.73;5.07;;;16.00;99.90;;;;;;5089068;28;20284;-70
2021/06/15 01:53:14;;;;;;;9.60;4.53;;;15.90;99.90;;;;;;5091675;28;20506;-67
2021/06/15 01:55:52;;;;;;;13.87;5.07;;;15.90;99.90;;;;;;5091486;28;20187;-70
2021/06/15 01:58:23;;;;;;;10.03;4.27;;;16.00;99.90;;;;;;5091177;28;20232;-68
2021/06/15 02:00:51;;;;;;;6.20;4.20;;;16.00;99.90;;;;;;5091518;28;20218;-71
2021/06/15 02:03:20;;;;;;;5.57;3.87;;;16.10;99.90;;;;;;5091612;28;20183;-69
2021/06/15 02:06:00;;;;;;;8.07;3.70;;;16.20;99.90;;;;;;5091160;28;20193;-68
2021/06/15 02:08:31;;;;;;;8.93;2.90;;;16.40;99.90;;;;;;5091256;28;20181;-67
2021/06/15 02:11:00;;;;;;;5.97;3.10;;;16.50;99.90;;;;;;5089386;28;20174;-70
2021/06/15 02:13:31;;;;;;;10.27;2.83;;;16.60;99.90;;;;;;5089773;28;20178;-68
2021/06/15 02:16:02;;;;;;;9.70;3.13;;;16.70;99.90;;;;;;5090552;28;20185;-68
2021/06/15 02:18:32;;;;;;;5.27;3.27;;;16.60;99.90;;;;;;5089900;28;20201;-69
2021/06/15 02:21:05;;;;;;;5.13;3.20;;;16.60;99.90;;;;;;5090716;28;20334;-69
2021/06/15 02:23:34;;;;;;;7.93;2.73;;;16.70;99.90;;;;;;5090423;28;20273;-67
2021/06/15 02:26:05;;;;;;;5.00;3.07;;;16.90;99.90;;;;;;5088155;28;20214;-67
2021/06/15 02:28:37;;;;;;;5.50;3.50;;;17.00;99.90;;;;;;5090515;28;20287;-67
2021/06/15 02:31:09;;;;;;;5.07;3.30;;;17.20;99.90;;;;;;5106817;28;20198;-66
2021/06/15 02:34:01;;;;;;;4.73;3.07;;;17.20;99.90;;;;;;5086737;28;20677;-69
2021/06/15 02:36:36;;;;;;;5.50;3.03;;;17.30;99.90;;;;;;5096140;28;20182;-66
2021/06/15 02:39:23;;;;;;;6.13;3.13;;;17.50;99.90;;;;;;5096246;28;20231;-70
2021/06/15 02:41:53;;;;;;;5.30;2.90;;;17.80;99.90;;;;;;5096056;28;20178;-66
2021/06/15 02:44:24;;;;;;;4.63;2.83;;;17.80;99.90;;;;;;5095875;28;20184;-67
2021/06/15 02:46:55;;;;;;;6.83;2.90;;;17.70;99.90;;;;;;5096395;28;20375;-71
2021/06/15 02:49:27;;;;;;;5.23;2.77;;;17.70;99.90;;;;;;5094734;28;20238;-67
2021/06/15 02:51:59;;;;;;;8.97;2.90;;;17.80;99.90;;;;;;5096512;28;20166;-70
2021/06/15 02:54:47;;;;;;;7.90;3.13;;;17.90;99.90;;;;;;5095435;28;20246;-68
2021/06/15 02:57:16;;;;;;;12.30;3.30;;;17.90;99.90;;;;;;5095471;28;20192;-68
2021/06/15 02:59:44;;;;;;;5.23;2.70;;;17.90;99.90;;;;;;5095455;28;20680;-67
2021/06/15 03:02:12;;;;;;;10.03;3.00;;;17.80;99.90;;;;;;5095644;28;20248;-67
2021/06/15 03:04:39;;;;;;;8.77;3.20;;;17.90;99.90;;;;;;5095355;28;20647;-71
2021/06/15 03:07:06;;;;;;;5.50;2.83;;;18.00;99.90;;;;;;5095412;28;20269;-69
2021/06/15 03:09:34;;;;;;;5.27;3.23;;;18.00;99.90;;;;;;5095614;28;20190;-67
2021/06/15 03:12:19;;;;;;;5.47;3.13;;;18.10;99.90;;;;;;5095498;28;20186;-69
2021/06/15 03:14:53;;;;;;;4.60;2.50;;;18.30;99.90;;;;;;5095626;28;20220;-69
2021/06/15 03:17:24;;;;;;;6.37;2.90;;;18.40;99.90;;;;;;5095343;28;20685;-68
2021/06/15 03:20:05;;;;;;;6.50;3.03;;;18.50;99.90;;;;;;5095295;28;20226;-69
2021/06/15 03:23:08;;;;;;;3.80;2.00;;;18.40;99.90;;;;;;5095183;28;20589;-66
2021/06/15 03:25:36;;;;;;;3.97;1.30;;;18.50;99.90;;;;;;5095367;28;20246;-70
2021/06/15 03:28:10;;;;;;;4.50;2.07;;;18.50;99.90;;;;;;5095082;28;20228;-67
2021/06/15 03:30:37;;;;;;;1.47;0.90;;;18.70;99.90;;;;;;5095227;28;20178;-74
2021/06/15 03:33:15;;;;;;;4.07;1.13;;;18.70;99.90;;;;;;5095309;28;20214;-74
2021/06/15 03:35:52;;;;;;;2.43;1.33;;;18.70;99.90;;;;;;5095392;28;20209;-73
2021/06/15 03:38:20;;;;;;;1.13;0.90;;;18.40;99.90;;;;;;5094796;28;20648;-74
2021/06/15 03:40:52;;;;;;;3.70;1.27;;;18.30;99.90;;;;;;5095005;28;20255;-71
2021/06/15 03:43:21;;;;;;;5.23;1.60;;;18.30;99.90;;;;;;5093702;28;20502;-74
2021/06/15 03:45:55;;;;;;;4.40;1.77;;;18.30;99.90;;;;;;5093669;28;20181;-71
2021/06/15 03:48:24;;;;;;;2.17;1.43;;;18.40;99.90;;;;;;5094733;28;20546;-73
2021/06/15 03:50:53;;;;;;;1.67;1.33;;;18.70;99.90;;;;;;5094518;28;20547;-72
2021/06/15 03:53:22;;;;;;;4.53;1.63;;;19.00;99.90;;;;;;5094813;28;20294;-68
2021/06/15 03:55:51;;;;;;;4.93;1.30;;;19.10;99.90;;;;;;5094698;28;20228;-71
2021/06/15 03:58:20;;;;;;;3.30;1.30;;;18.90;99.90;;;;;;5094734;28;20625;-73
2021/06/15 04:00:50;;;;;;;2.20;1.23;;;18.70;99.90;;;;;;5094689;28;20206;-72
2021/06/15 04:03:18;;;;;;;6.67;0.90;;;18.50;99.90;;;;;;5094540;28;20567;-73
2021/06/15 04:05:47;;;;;;;3.27;1.23;;;18.40;99.90;;;;;;5094692;28;20183;-72
2021/06/15 04:08:15;;;;;;;3.57;0.90;;;18.40;99.90;;;;;;5094450;28;20193;-74
2021/06/15 04:10:45;;;;;;;3.23;1.20;;;18.40;99.90;;;;;;5094070;28;20588;-72
2021/06/15 04:13:15;;;;;;;4.53;1.43;;;18.30;99.90;;;;;;5094323;28;20183;-71
2021/06/15 04:15:43;;;;;;;5.23;1.30;;;18.10;99.90;;;;;;5093734;28;20213;-74
2021/06/15 04:18:15;;;;;;;4.87;1.50;;;18.00;99.90;;;;;;5093245;28;20193;-70
2021/06/15 04:20:46;;;;;;;3.83;1.40;;;18.00;99.90;;;;;;5086360;28;20214;-71
2021/06/15 04:23:19;;;;;;;4.23;1.37;;;17.90;99.90;;;;;;5086273;28;20265;-70
2021/06/15 04:25:47;;;;;;;4.87;1.27;;;17.80;99.90;;;;;;5088775;28;20180;-72
2021/06/15 04:28:17;;;;;;;5.87;1.43;;;17.90;99.90;;;;;;5091307;28;20183;-69
2021/06/15 04:30:45;;;;;;;4.60;1.40;;;18.00;99.90;;;;;;5090879;28;20239;-70
2021/06/15 04:33:16;;;;;;;7.30;1.90;;;18.00;99.90;;;;;;5091852;28;20583;-72
2021/06/15 04:35:50;;;;;;;8.90;1.90;;;18.00;99.90;;;;;;5093954;28;20178;-72
2021/06/15 04:38:22;;;;;;;4.43;1.40;;;17.90;99.90;;;;;;5087473;28;20262;-69
2021/06/15 04:40:52;;;;;;;7.13;1.60;;;17.90;99.90;;;;;;5089700;28;20296;-69
2021/06/15 04:43:35;;;;;;;5.27;1.63;;;17.70;99.90;;;;;;5093590;28;20251;-71
2021/06/15 04:46:32;;;;;;;4.17;1.50;;;17.70;99.90;;;;;;5092411;28;20269;-68
2021/06/15 04:49:16;;;;;;;7.80;1.50;;;17.60;99.90;;;;;;5093326;28;20232;-70
2021/06/15 04:51:47;;;;;;;3.47;1.33;;;17.50;99.90;;;;;;5092991;28;20189;-66
2021/06/15 04:54:18;;;;;;;2.20;1.20;;;17.50;99.90;;;;;;5093155;28;20232;-69
2021/06/15 04:56:48;;;;;;;3.13;1.50;;;17.50;99.90;;;;;;5089640;28;20185;-67
2021/06/15 04:59:20;;;;;;;3.63;1.83;;;17.50;99.90;;;;;;5090521;28;20174;-69
2021/06/15 05:01:48;;;;;;;1.87;1.10;;;17.60;99.90;;;;;;5090575;28;20226;-68
2021/06/15 05:04:16;;;;;;;4.47;1.63;;;17.60;99.90;;;;;;5091059;28;20633;-71
2021/06/15 05:06:45;;;;;;;2.47;1.40;;;17.80;99.90;;;;;;5088346;28;20178;-71
2021/06/15 05:09:15;;;;;;;3.37;1.60;;;18.10;99.90;;;;;;5092709;28;20560;-72
2021/06/15 05:11:43;;;;;;;5.10;1.40;;;18.00;99.90;;;;;;5092204;28;20171;-69
2021/06/15 05:14:13;;;;;;;3.93;1.27;;;17.90;99.90;;;;;;5093096;28;20174;-69
2021/06/15 05:16:42;;;;;;;2.47;1.40;;;17.90;99.90;;;;;;5091379;28;20190;-66
2021/06/15 05:19:09;;;;;;;3.90;1.33;;;17.80;99.90;;;;;;5092339;28;20225;-68
2021/06/15 05:21:57;;;;;;;4.30;1.20;;;17.80;99.90;;;;;;5081810;28;20286;-74
2021/06/15 05:24:50;;;;;;;3.43;1.50;;;17.80;99.90;;;;;;5085896;28;20203;-68
2021/06/15 05:27:31;;;;;;;2.27;1.30;;;17.80;99.90;;;;;;5088652;28;20247;-67
2021/06/15 05:30:00;;;;;;;6.17;1.60;;;17.70;99.90;;;;;;5092275;28;20789;-67
2021/06/15 05:32:31;;;;;;;3.23;1.60;;;17.60;99.90;;;;;;5091345;28;20287;-67
2021/06/15 05:35:00;;;;;;;4.63;1.90;;;17.50;99.90;;;;;;5089941;28;20183;-68
2021/06/15 05:37:28;;;;;;;9.77;1.90;;;17.40;99.90;;;;;;5087854;28;20196;-68
2021/06/15 05:39:56;;;;;;;4.93;1.50;;;17.40;99.90;;;;;;5091932;28;20214;-67
2021/06/15 05:42:24;;;;;;;5.40;1.50;;;17.40;99.90;;;;;;5091627;28;20193;-66
2021/06/15 05:44:53;;;;;;;4.03;1.20;;;17.30;99.90;;;;;;5091518;28;20277;-68
2021/06/15 05:47:20;;;;;;;3.70;1.30;;;17.30;99.90;;;;;;5091685;28;20262;-68
2021/06/15 05:49:48;;;;;;;2.33;1.50;;;17.10;99.90;;;;;;5091266;28;20725;-66
2021/06/15 05:52:15;;;;;;;4.83;1.90;;;17.10;99.90;;;;;;5092213;28;20196;-65
2021/06/15 05:54:42;;;;;;;7.43;2.60;;;17.10;99.90;;;;;;5091264;28;20190;-66
2021/06/15 05:57:10;;;;;;;5.00;1.77;;;17.00;99.90;;;;;;5091744;28;20184;-67
2021/06/15 05:59:37;;;;;;;6.27;1.60;;;17.00;99.90;;;;;;5087485;28;20287;-68
2021/06/15 06:02:06;;;;;;;5.47;1.77;;;17.00;99.90;;;;;;5090709;28;20260;-68
2021/06/15 06:10:06;;;;;;;5.60;2.13;;;16.90;99.90;;;;;;5091626;28;20556;-68
2021/06/15 06:12:34;;;;;;;4.73;2.07;;;16.90;99.90;;;;;;5090665;28;20190;-70
2021/06/15 06:15:02;;;;;;;4.77;2.00;;;16.80;99.90;;;;;;5091178;28;20181;-67
2021/06/15 06:17:30;;;;;;;6.07;2.33;;;16.90;99.90;;;;;;5094208;28;20182;-67
2021/06/15 06:19:57;;;;;;;5.00;2.00;;;16.80;99.90;;;;;;5090926;28;20363;-67
2021/06/15 06:22:24;;;;;;;4.83;1.93;;;16.80;99.90;;;;;;5090286;28;20182;-68
2021/06/15 06:24:53;;;;;;;4.60;1.70;;;16.80;99.90;;;;;;5091701;28;20177;-69
2021/06/15 06:27:20;;;;;;;6.00;1.53;;;16.70;99.90;;;;;;5091539;28;20185;-68
2021/06/15 06:29:49;;;;;;;4.30;1.67;;;16.70;99.90;;;;;;5091197;28;20218;-68
2021/06/15 06:32:16;;;;;;;3.13;1.60;;;16.60;99.90;;;;;;5089903;28;20179;-72
2021/06/15 06:34:44;;;;;;;4.47;2.43;;;16.60;99.90;;;;;;5092149;28;20298;-69
2021/06/15 06:37:11;;;;;;;3.93;1.93;;;16.50;99.90;;;;;;5088333;28;20204;-69
2021/06/15 06:39:39;;;;;;;3.10;1.70;;;16.50;99.90;;;;;;5097621;28;20311;-72
2021/06/15 06:42:07;;;;;;;3.37;2.00;;;16.50;99.90;;;;;;5088259;28;20180;-70
2021/06/15 06:44:35;;;;;;;5.43;1.47;;;16.50;99.90;;;;;;5090681;28;20185;-68
2021/06/15 06:47:02;;;;;;;2.40;1.57;;;16.50;99.90;;;;;;5089456;28;20185;-67
2021/06/15 06:49:29;;;;;;;5.17;1.50;;;16.50;99.90;;;;;;5085424;28;20292;-70
2021/06/15 06:51:57;;;;;;;2.70;1.60;;;16.50;99.90;;;;;;5088428;28;20202;-73
2021/06/15 06:54:24;;;;;;;5.13;1.70;;;16.40;99.90;;;;;;5090030;28;20261;-70
2021/06/15 06:56:51;;;;;;;3.17;1.83;;;16.40;99.90;;;;;;5094723;28;20198;-67
2021/06/15 06:59:19;;;;;;;6.50;2.53;;;16.30;99.90;;;;;;5087211;28;20191;-67
2021/06/15 07:01:46;;;;;;;5.10;1.70;;;16.30;99.90;;;;;;5092723;28;20187;-68
2021/06/15 07:04:14;;;;;;;6.60;2.20;;;16.30;99.90;;;;;;5092935;28;20617;-67
2021/06/15 07:06:41;;;;;;;5.87;2.00;;;16.30;99.90;;;;;;5092572;28;20216;-73
2021/06/15 07:09:08;;;;;;;5.87;1.67;;;16.30;99.90;;;;;;5091526;28;20696;-70
2021/06/15 07:11:36;;;;;;;4.57;1.50;;;16.30;99.90;;;;;;5088629;28;20659;-74
2021/06/15 07:14:03;;;;;;;4.63;2.10;;;16.30;99.90;;;;;;5092250;28;20268;-72
2021/06/15 07:16:30;;;;;;;4.43;1.80;;;16.30;99.90;;;;;;5091260;28;20254;-69
2021/06/15 07:18:58;;;;;;;6.83;2.00;;;16.30;99.90;;;;;;5097180;28;20176;-66
2021/06/15 07:21:25;;;;;;;5.67;1.97;;;16.20;99.90;;;;;;5095286;28;20220;-73
2021/06/15 07:23:52;;;;;;;5.00;1.63;;;16.20;99.90;;;;;;5094282;28;20178;-68
2021/06/15 07:26:21;;;;;;;5.43;1.70;;;16.20;99.90;;;;;;5093637;28;20196;-70
2021/06/15 07:28:49;;;;;;;6.87;1.93;;;16.10;99.90;;;;;;5095951;28;20189;-72
2021/06/15 07:31:16;;;;;;;4.10;1.63;;;16.10;99.90;;;;;;5093668;28;20188;-65
2021/06/15 07:33:43;;;;;;;4.97;1.90;;;16.00;99.90;;;;;;5094598;28;20552;-66
2021/06/15 07:36:11;;;;;;;7.43;2.07;;;16.00;99.90;;;;;;5097965;28;20190;-66
2021/06/15 07:38:39;;;;;;;4.93;1.50;;;15.90;99.90;;;;;;5104328;28;20524;-68
2021/06/15 07:41:07;;;;;;;5.47;1.80;;;15.90;99.90;;;;;;5086909;28;20219;-70
2021/06/15 07:43:37;;;;;;;6.73;1.70;;;15.80;99.90;;;;;;5081934;28;20185;-68
2021/06/15 07:46:05;;;;;;;5.03;1.50;;;15.70;99.90;;;;;;5079844;28;20182;-69
2021/06/15 07:48:32;;;;;;;3.80;1.50;;;15.70;99.90;;;;;;5081880;28;20191;-67
2021/06/15 07:51:00;;;;;;;2.57;1.30;;;15.70;99.90;;;;;;5081502;28;20178;-67
2021/06/15 07:53:27;;;;;;;8.87;1.50;;;15.60;99.90;;;;;;5093474;28;20277;-68
2021/06/15 07:55:55;;;;;;;3.70;1.40;;;15.50;99.90;;;;;;5085617;28;20191;-68
2021/06/15 07:58:22;;;;;;;6.77;1.70;;;15.50;99.90;;;;;;5094423;28;20645;-66
2021/06/15 08:00:49;;;;;;;3.40;1.30;;;15.40;99.90;;;;;;5084870;28;20254;-70
2021/06/15 08:03:17;;;;;;;6.43;2.73;;;15.40;99.90;;;;;;5092002;28;20263;-69
2021/06/15 08:05:44;;;;;;;7.77;4.93;;;15.40;99.90;;;;;;5090801;28;20308;-74
2021/06/15 08:08:13;;;;;;;7.23;3.23;;;15.30;99.90;;;;;;5097810;28;20183;-68
2021/06/15 08:10:41;;;;;;;3.63;2.27;;;15.30;99.90;;;;;;5101792;28;20700;-66
2021/06/15 08:13:08;;;;;;;2.57;1.40;;;15.20;99.90;;;;;;5096467;28;20237;-68
2021/06/15 08:15:35;;;;;;;8.63;1.70;;;15.20;99.90;;;;;;5094291;28;20228;-67
2021/06/15 08:18:03;;;;;;;3.77;1.47;;;15.20;99.90;;;;;;5095630;28;20182;-73
2021/06/15 08:20:30;;;;;;;3.27;1.20;;;15.10;99.90;;;;;;5089987;28;20261;-72
2021/06/15 08:22:59;;;;;;;6.93;1.70;;;15.00;99.90;;;;;;5094926;28;20182;-76
2021/06/15 08:25:27;;;;;;;4.80;1.67;;;15.00;99.90;;;;;;5091814;28;20282;-71
2021/06/15 08:27:54;;;;;;;3.30;1.40;;;14.90;99.90;;;;;;5096516;28;20179;-72
2021/06/15 08:30:22;;;;;;;3.60;1.67;;;14.80;99.90;;;;;;5094486;28;20196;-69
2021/06/15 08:32:49;;;;;;;4.73;1.83;;;14.80;99.90;;;;;;5094459;28;20217;-74
2021/06/15 08:35:17;;;;;;;3.97;1.87;;;14.70;99.90;;;;;;5095634;28;20236;-73
2021/06/15 08:37:45;;;;;;;4.63;1.70;;;14.70;99.90;;;;;;5107406;28;20182;-70
2021/06/15 08:40:13;;;;;;;3.33;2.00;;;14.70;99.90;;;;;;5096171;28;20271;-69
2021/06/15 08:42:41;;;;;;;3.00;1.70;;;14.60;99.90;;;;;;5094073;28;20179;-73
2021/06/15 08:45:12;;;;;;;7.67;2.80;;;14.60;99.90;;;;;;5097703;28;20202;-70
2021/06/15 08:47:41;;;;;;;6.80;3.23;;;14.60;99.90;;;;;;5097162;28;20179;-72
2021/06/15 08:50:13;;;;;;;12.00;5.23;;;14.60;99.90;;;;;;5094713;28;20232;-70
2021/06/15 08:52:41;;;;;;;9.70;5.30;;;14.50;99.90;;;;;;5093877;28;20231;-70
2021/06/15 08:55:09;;;;;;;7.83;4.83;;;14.50;99.90;;;;;;5101967;28;20290;-75
2021/06/15 08:57:37;;;;;;;10.47;5.57;;;14.50;99.90;;;;;;5091103;28;20185;-68
2021/06/15 09:00:08;;;;;;;8.30;4.87;;;14.50;99.90;;;;;;5092683;28;20225;-75
2021/06/15 09:02:44;;;;;;;7.07;4.87;;;14.50;99.90;;;;;;5092722;28;20542;-72
2021/06/15 09:05:17;;;;;;;9.17;4.73;;;14.40;99.90;;;;;;5079472;28;20175;-67
2021/06/15 09:08:05;;;;;;;7.00;4.17;;;14.40;99.90;;;;;;5098302;28;20590;-74
2021/06/15 09:10:37;;;;;;;6.93;3.77;;;14.40;99.90;;;;;;5094085;28;20181;-68
2021/06/15 09:13:05;;;;;;;8.97;3.50;;;14.40;99.90;;;;;;5093459;28;20175;-70
2021/06/15 09:15:33;;;;;;;6.67;2.80;;;14.40;99.90;;;;;;5093124;28;20181;-74
2021/06/15 09:18:01;;;;;;;6.93;3.20;;;14.40;99.90;;;;;;5090056;28;20182;-75
2021/06/15 09:20:32;;;;;;;4.90;3.20;;;14.30;99.90;;;;;;5100264;28;20221;-72
2021/06/15 09:23:05;;;;;;;5.53;3.60;;;14.30;99.90;;;;;;5093181;28;20545;-73
2021/06/15 09:25:35;;;;;;;8.30;3.83;;;14.30;99.90;;;;;;5089500;28;20174;-73
2021/06/15 09:28:22;;;;;;;5.63;3.30;;;14.20;99.90;;;;;;5110076;28;20177;-71
2021/06/15 09:30:57;;;;;;;8.20;3.80;;;14.20;99.90;;;;;;5096848;28;20183;-74
2021/06/15 09:33:46;;;;;;;6.10;3.30;;;14.10;99.90;;;;;;5089349;28;20337;-72
2021/06/15 09:36:17;;;;;;;6.13;3.60;;;14.00;99.90;;;;;;5090664;28;20540;-72
2021/06/15 09:38:57;;;;;;;8.37;3.40;;;14.00;99.90;;;;;;5091115;28;20214;-74
2021/06/15 09:41:39;;;;;;;4.50;3.20;;;14.00;99.90;;;;;;5085975;28;20233;-73
2021/06/15 09:44:26;;;;;;;7.97;3.50;;;13.90;99.90;;;;;;5088344;28;20182;-68
2021/06/15 09:46:56;;;;;;;6.57;3.67;;;13.90;99.90;;;;;;5087231;28;20216;-68
2021/06/15 09:49:55;;;;;;;7.57;3.60;;;13.90;99.90;;;;;;5091151;28;20270;-68
2021/06/15 09:52:28;;;;;;;6.90;4.67;;;13.90;99.90;;;;;;5079249;28;20271;-67
2021/06/15 09:54:59;;;;;;;4.70;3.70;;;13.80;99.90;;;;;;5090439;28;20185;-71
2021/06/15 09:57:36;;;;;;;7.90;5.40;;;13.70;99.90;;;;;;5090050;28;20190;-67
2021/06/15 10:00:12;;;;;;;13.53;7.77;;;13.70;99.90;;;;;;5084860;28;20210;-67
2021/06/15 10:02:53;;;;;;;11.47;7.80;;;13.70;99.90;;;;;;5087370;28;20264;-69
2021/06/15 10:05:29;;;;;;;14.03;7.30;;;13.60;99.90;;;;;;5091428;28;20295;-68
2021/06/15 10:08:03;;;;;;;11.00;6.20;;;13.60;99.90;;;;;;5090977;28;20283;-67
2021/06/15 10:10:37;;;;;;;11.40;6.70;;;13.60;99.90;;;;;;5087286;28;20190;-69
2021/06/15 10:13:06;;;;;;;10.07;5.70;;;13.60;99.90;;;;;;5091244;28;20174;-73
2021/06/15 10:15:38;;;;;;;13.23;6.37;;;13.50;99.90;;;;;;5091379;28;20206;-72
2021/06/15 10:18:06;;;;;;;14.43;6.73;;;13.50;99.90;;;;;;5091585;28;20175;-70
2021/06/15 10:20:36;;;;;;;10.10;6.17;;;13.50;99.90;;;;;;5087495;28;20207;-73
2021/06/15 10:23:05;;;;;;;13.77;7.27;;;13.40;99.90;;;;;;5086535;28;20179;-68
2021/06/15 10:25:34;;;;;;;12.23;8.07;;;13.40;99.90;;;;;;5091622;28;20190;-72
2021/06/15 10:28:12;;;;;;;14.63;8.73;;;13.30;99.90;;;;;;5092416;28;20174;-74
2021/06/15 10:30:44;;;;;;;14.63;9.50;;;13.30;99.90;;;;;;5091599;28;20632;-73
2021/06/15 10:33:22;;;;;;;17.03;7.90;;;13.30;99.90;;;;;;5091553;28;20589;-68
2021/06/15 10:35:58;;;;;;;12.50;7.67;;;13.30;99.90;;;;;;5092424;28;20185;-70
2021/06/15 10:38:28;;;;;;;10.10;6.80;;;13.30;99.90;;;;;;5091832;28;20250;-69
2021/06/15 10:41:02;;;;;;;11.30;6.90;;;13.20;99.90;;;;;;5092322;28;20217;-72
2021/06/15 10:43:44;;;;;;;11.90;6.23;;;13.20;99.90;;;;;;5090803;28;20269;-70
2021/06/15 10:46:34;;;;;;;12.43;6.43;;;13.10;99.90;;;;;;5119606;28;20202;-68
2021/06/15 10:49:11;;;;;;;10.87;6.57;;;13.20;99.90;;;;;;5091233;28;20188;-67
2021/06/15 10:51:54;;;;;;;9.13;6.10;;;13.10;99.90;;;;;;5092802;28;20243;-72
2021/06/15 10:54:32;;;;;;;10.27;6.33;;;13.10;99.90;;;;;;5095732;28;20540;-68
2021/06/15 10:57:17;;;;;;;11.07;6.57;;;13.00;99.90;;;;;;5096218;28;20178;-68
2021/06/15 11:00:02;;;;;;;12.97;6.27;;;13.00;99.90;;;;;;5081967;28;20210;-69
2021/06/15 11:02:31;;;;;;;13.20;6.80;;;13.00;99.90;;;;;;5095071;28;20190;-72
2021/06/15 11:05:19;;;;;;;10.03;6.30;;;13.00;99.90;;;;;;5095365;28;20179;-74
2021/06/15 11:07:47;;;;;;;12.27;6.60;;;12.90;99.90;;;;;;5095291;28;20851;-68
2021/06/15 11:10:14;;;;;;;10.87;6.00;;;13.00;99.90;;;;;;5095390;28;20178;-71
2021/06/15 11:12:48;;;;;;;10.73;6.17;;;12.90;99.90;;;;;;5087726;28;20713;-68
2021/06/15 11:15:22;;;;;;;12.83;6.43;;;12.90;99.90;;;;;;5094536;28;20201;-72
2021/06/15 11:17:55;;;;;;;14.43;6.30;;;12.90;99.90;;;;;;5095564;28;20244;-72
2021/06/15 11:20:31;;;;;;;11.00;7.13;;;12.80;99.90;;;;;;5093820;28;20274;-69
2021/06/15 11:23:31;;;;;;;10.97;5.87;;;12.80;99.90;;;;;;5095067;28;20190;-69
2021/06/15 11:26:13;;;;;;;9.40;6.33;;;12.80;99.90;;;;;;5050799;28;20602;-71
2021/06/15 11:28:42;;;;;;;16.77;7.30;;;12.80;99.90;;;;;;5095248;28;20185;-67
2021/06/15 11:31:25;;;;;;;12.80;6.83;;;12.80;99.90;;;;;;5095126;28;20183;-67
2021/06/15 11:34:01;;;;;;;18.80;7.20;;;12.80;99.90;;;;;;5094320;28;20222;-68
2021/06/15 11:36:51;;;;;;;11.13;6.47;;;12.80;99.90;;;;;;5094113;28;20656;-67
2021/06/15 11:39:30;;;;;;;13.03;8.20;;;12.80;99.90;;;;;;5095017;28;20186;-68
2021/06/15 11:42:19;;;;;;;16.20;7.83;;;12.80;99.90;;;;;;5094582;28;20235;-68
2021/06/15 11:45:10;;;;;;;14.63;7.77;;;12.80;99.90;;;;;;5082669;28;20191;-67
2021/06/15 11:47:38;;;;;;;19.83;8.70;;;12.70;99.90;;;;;;5092754;28;20518;-72
2021/06/15 11:50:31;;;;;;;14.67;7.80;;;12.70;99.90;;;;;;5094318;28;20270;-67
2021/06/15 11:53:14;;;;;;;15.30;7.33;;;12.70;99.90;;;;;;5081939;28;20168;-70
2021/06/15 11:55:58;;;;;;;17.93;7.23;;;12.70;99.90;;;;;;5086735;28;20586;-73
2021/06/15 11:58:34;;;;;;;13.13;7.50;;;12.70;99.90;;;;;;5094033;28;20174;-68
2021/06/15 12:01:11;;;;;;;14.00;9.13;;;12.60;99.90;;;;;;5092576;28;20267;-69
2021/06/15 12:03:40;;;;;;;17.23;11.93;;;12.60;99.90;;;;;;5089431;28;20232;-72
2021/06/15 12:06:09;;;;;;;17.63;11.53;;;12.60;99.90;;;;;;5094376;28;20187;-71
2021/06/15 12:08:41;;;;;;;19.67;10.80;;;12.60;99.90;;;;;;5091655;28;20186;-72
2021/06/15 12:11:14;;;;;;;16.03;10.33;;;12.60;99.90;;;;;;5091178;28;20197;-74
2021/06/15 12:13:43;;;;;;;13.90;9.37;;;12.50;99.90;;;;;;5094304;28;20186;-75
2021/06/15 12:16:14;;;;;;;14.73;8.60;;;12.50;99.90;;;;;;5092477;28;20189;-74
2021/06/15 12:18:44;;;;;;;13.10;7.63;;;12.50;99.90;;;;;;5094476;28;20179;-71
2021/06/15 12:21:19;;;;;;;11.73;7.47;;;12.50;99.90;;;;;;5093583;28;20271;-72
2021/06/15 12:24:04;;;;;;;10.63;6.90;;;12.40;99.90;;;;;;5094119;28;20186;-76
2021/06/15 12:26:40;;;;;;;11.27;7.20;;;12.30;99.90;;;;;;5091069;28;20217;-70
2021/06/15 12:29:13;;;;;;;16.17;8.30;;;12.30;99.90;;;;;;5092874;28;20182;-67
2021/06/15 12:31:43;;;;;;;15.40;7.67;;;12.30;99.90;;;;;;5080965;28;20178;-66
2021/06/15 12:34:13;;;;;;;11.47;6.63;;;12.30;99.90;;;;;;5093835;28;20218;-69
2021/06/15 12:36:46;;;;;;;13.53;8.13;;;12.30;99.90;;;;;;5093875;28;20216;-69
2021/06/15 12:39:14;;;;;;;13.77;7.83;;;12.20;99.90;;;;;;5094146;28;20641;-68
2021/06/15 12:41:47;;;;;;;13.53;7.53;;;12.20;99.90;;;;;;5094073;28;20206;-73
2021/06/15 12:44:18;;;;;;;10.33;7.10;;;12.20;99.90;;;;;;5093636;28;20230;-68
2021/06/15 12:46:46;;;;;;;13.50;7.37;;;12.20;99.90;;;;;;5092888;28;20182;-71
2021/06/15 12:49:19;;;;;;;11.40;7.67;;;12.20;99.90;;;;;;5094125;28;20659;-71
2021/06/15 12:51:50;;;;;;;13.53;7.13;;;12.20;99.90;;;;;;5093461;28;20315;-71
2021/06/15 12:54:37;;;;;;;20.40;11.73;;;12.20;99.90;;;;;;5092773;28;20174;-70
2021/06/15 12:57:19;;;;;;;25.33;16.33;;;12.20;99.90;;;;;;5094042;28;20179;-68
2021/06/15 13:00:06;;;;;;;21.10;13.57;;;12.30;99.90;;;;;;5094148;28;20215;-69
2021/06/15 13:02:37;;;;;;;14.87;10.73;;;12.20;99.90;;;;;;5093359;28;20281;-71
2021/06/15 13:05:08;;;;;;;12.93;8.30;;;12.30;99.90;;;;;;5086864;28;20178;-74
2021/06/15 13:07:35;;;;;;;10.93;7.47;;;12.20;99.90;;;;;;5092908;28;20659;-75
2021/06/15 13:10:19;;;;;;;11.30;6.97;;;12.10;99.90;;;;;;5093363;28;20198;-73
2021/06/15 13:12:49;;;;;;;10.90;7.93;;;12.10;99.90;;;;;;5092640;28;20202;-67
2021/06/15 13:15:20;;;;;;;12.03;8.90;;;12.10;99.90;;;;;;5093249;28;20207;-67